Tiempo atmosférico en la estación meteorológica de Mogán, Puerto, Las Palmas (10 m.)



Fecha
DESCASC
Temp. máxima en grados centígrados (hora)
DESCASC
Temp. mínima en grados centígrados (hora)
DESCASC
Temp. media en grados centígrados
DESCASC
Racha de viento máxima en m/sg (hora)
DESCASC
Velocidad máxima media en intervalos de 10 minutos(hora)
DESCASC
Precipitaciones diarias en mm
DESCASC
Precipitaciones de 00:00 a 06:00 en mm
DESCASC
Precipitaciones de 06:00 a 12:00 en mm
DESCASC
Precipitaciones de 12:00 a 18:00 en mm
DESCASC
Precipitaciones de 18:00 a 24:00 en mm
DESCASC
18-08-2019 30.9 (13:50) 22.9 (00:50) 26.9 5 (09:30) 3.33 (09:40) 0 0 0 0 0
17-08-2019 30 (14:00) 23 (08:00) 26.5 8.06 (14:50) 6.67 (14:20) 0 0 0 0 0
16-08-2019 29.7 (18:00) 20.9 (06:10) 25.3 8.06 (19:40) 6.94 (19:40) 0 0 0 0 0
15-08-2019 29 (14:20) 20.6 (00:00) 24.8 4.72 (20:40) 3.89 (20:40) 0 0 0 0 0
14-08-2019 28.2 (18:30) 20.7 (00:00) 24.5 5.83 (02:20) 4.17 (20:00) 0 0 0 0 0
13-08-2019 28.5 (15:30) 20.7 (00:00) 24.6 5.56 (16:10) 4.72 (16:10) 0 0 0 0 0
12-08-2019 29.1 (12:50) 22 (00:00) 25.6 5.56 (17:10) 4.72 (17:20) 0 0 0 0 0
11-08-2019 28.6 (15:30) 21.8 (00:00) 25.2 6.94 (22:30) 5.56 (22:40) 0 0 0 0 0
10-08-2019 29.6 (15:50) 22.1 (00:00) 25.9 5.28 (07:00) 4.17 (16:50) 0 0 0 0 0
09-08-2019 26.9 (15:40) 21.6 (00:00) 24.3 7.5 (12:50) 6.11 (13:20) 0 0 0 0 0
08-08-2019 26.8 (16:40) 21.6 (00:00) 24.2 6.39 (01:50) 4.17 (01:50) 0 0 0 0 0
07-08-2019 26.4 (17:10) 20.1 (00:00) 23.3 7.22 (22:20) 6.39 (22:20) 0 0 0 0 0
06-08-2019 26.3 (16:40) 20.3 (00:00) 23.3 7.5 (17:50) 5.83 (18:20) 0 0 0 0 0
05-08-2019 28 (16:20) 20.2 (00:00) 24.1 9.17 (13:30) 7.78 (13:30) 0 0 0 0 0
04-08-2019 26.8 (16:40) 19.5 (00:00) 23.1 8.61 (17:40) 7.78 (17:40) 0 0 0 0 0
03-08-2019 26.3 (18:50) 20.1 (00:00) 23.2 11.94 (15:10) 10.56 (15:10) 0 0 0 0 0
02-08-2019 26.6 (16:20) 19.8 (00:00) 23.2 9.72 (17:30) 7.78 (17:40) 0 0 0 0 0
01-08-2019 27 (15:20) 19.7 (00:00) 23.4 10 (17:10) 8.33 (17:10) 0 0 0 0 0
31-07-2019 26.8 (15:30) 20 (00:00) 23.4 6.67 (17:20) 5 (17:20) 0 0 0 0 0
30-07-2019 26.8 (12:30) 21.2 (00:00) 24 8.33 (17:30) 6.94 (17:30) 0 0 0 0 0
29-07-2019 28 (16:30) 21.4 (00:00) 24.7 9.44 (13:40) 8.33 (13:40) 0 0 0 0 0
28-07-2019 26.6 (11:30) 20.3 (00:00) 23.4 7.22 (17:20) 6.39 (17:20) 0 0 0 0 0
27-07-2019 27.2 (13:20) 21.7 (00:00) 24.5 7.78 (14:00) 6.94 (14:00) 0 0 0 0 0
26-07-2019 27.8 (17:00) 22.1 (00:00) 24.9 7.22 (17:50) 6.11 (17:50) 0 0 0 0 0
25-07-2019 30.6 (14:30) 21 (00:00) 25.8 6.94 (12:10) 4.72 (16:10) 0 0 0 0 0
24-07-2019 27.5 (15:40) 19.9 (00:00) 23.7 6.94 (15:10) 6.11 (17:50) 0 0 0 0 0
23-07-2019 26.7 (18:10) 19.3 (00:00) 23 5.83 (00:10) 4.72 (20:00) 0 0 0 0 0
22-07-2019 26.9 (16:20) 20.8 (00:00) 23.8 8.06 (23:40) 6.39 (18:20) 0 0 0 0 0

Gráficas

Temp. máximas Temp. mínimas Temp. medias Precipitaciones Rachas de viento máximas Velocidades máximas media en intervalos de 10 minutos

Datos horarios

Fecha y hora oficial Temperatura (ºC) Velocidad del viento (km/h) Dirección del viento Racha (km/h) Dirección de racha Precipitación (mm) Presión (hPa) Tendencia (hPa) Humedad (%)
2019-08-20 23:00:00 23.2 10 Sudeste 18 Sudeste 0 -- -- 80
2019-08-20 22:00:00 24 0 Calma 7 Sudeste 0 -- -- 71
2019-08-20 21:00:00 24.5 3 Oeste 10 Oeste 0 -- -- 63
2019-08-20 20:00:00 26.5 2 Sur 8 Sudeste 0 -- -- 56
2019-08-20 19:00:00 28.4 5 Sudeste 9 Este 0 -- -- 51
2019-08-20 18:00:00 29.7 6 Sudeste 8 Este 0 -- -- 47
2019-08-20 17:00:00 29.2 2 Sur 8 Sudeste 0 -- -- 52
2019-08-20 16:00:00 27.7 3 Sur 8 Sur 0 -- -- 57
2019-08-20 15:00:00 28.3 4 Sudeste 7 Sudeste 0 -- -- 55
2019-08-20 14:00:00 27.7 3 Sudoeste 10 Oeste 0 -- -- 58
2019-08-20 13:00:00 28 4 Sudeste 11 Este 0 -- -- 52
2019-08-20 12:00:00 26.6 10 Sudeste 15 Sudeste 0 -- -- 67
2019-08-20 11:00:00 24.9 5 Sudeste 12 Sudeste 0 -- -- 76
2019-08-20 10:00:00 24 10 Sudeste 19 Sudeste 0 -- -- 80
2019-08-20 09:00:00 21.9 15 Sudeste 19 Sudeste 0 -- -- 87
2019-08-20 08:00:00 20.8 10 Norte 15 Norte 0 -- -- 90
2019-08-20 07:00:00 21.2 10 Norte 13 Nordeste 0 -- -- 90
2019-08-20 06:00:00 21 8 Sudeste 13 Sudeste 0 -- -- 90
2019-08-20 05:00:00 21.2 7 Sudeste 14 Sudeste 0 -- -- 91
2019-08-20 04:00:00 21.5 13 Sudeste 17 Este 0 -- -- 92
2019-08-20 03:00:00 21.6 9 Sudeste 12 Sudeste 0 -- -- 92
2019-08-20 02:00:00 21.6 5 Sudeste 10 Sudeste 0 -- -- 92
2019-08-20 01:00:00 21.9 5 Sudeste 13 Sudeste 0 -- -- 92
2019-08-20 00:00:00 22 12 Sudeste 15 Sudeste 0 -- -- 92
2019-08-19 23:00:00 22.3 6 Sudeste 13 Sudeste 0 -- -- 89
2019-08-19 22:00:00 22.8 11 Sudeste 23 Sudeste 0 -- -- 87
2019-08-19 21:00:00 23.1 15 Sudeste 19 Sudeste 0 -- -- 84
2019-08-19 20:00:00 23.8 10 Sudeste 15 Sudeste 0 -- -- 82
2019-08-19 19:00:00 25.2 4 Sudeste 22 Sudoeste 0 -- -- 77
2019-08-19 18:00:00 24.3 13 Sudoeste 26 Sur 0 -- -- 78
2019-08-19 17:00:00 25.8 13 Sur 20 Sudeste 0 -- -- 74
2019-08-19 16:00:00 28.6 12 Sudeste 16 Sudeste 0 -- -- 63
2019-08-19 15:00:00 29.1 6 Sudeste 12 Oeste 0 -- -- 62
2019-08-19 14:00:00 29.4 2 Sur 15 Oeste 0 -- -- 60
2019-08-19 13:00:00 29.1 0 Calma 12 Oeste 0 -- -- 60
2019-08-19 12:00:00 28.4 3 Sudoeste 17 Oeste 0 -- -- 65
2019-08-19 11:00:00 25.6 13 Oeste 18 Oeste 0 -- -- 67
2019-08-19 10:00:00 25.8 6 Sudeste 10 Oeste 0 -- -- 72
2019-08-19 09:00:00 24.2 0 Calma 10 Este 0 -- -- 68
2019-08-19 08:00:00 24.2 3 Oeste 14 Norte 0 -- -- 60
2019-08-19 07:00:00 23.5 0 Calma 9 Norte 0 -- -- 64
2019-08-19 06:00:00 24.7 3 Este 17 Este 0 -- -- 59
2019-08-19 05:00:00 25.9 12 Este 21 Este 0 -- -- 56
2019-08-19 04:00:00 25.7 17 Este 22 Este 0 -- -- 66
2019-08-19 03:00:00 23.8 2 Sur 10 Sudeste 0 -- -- 82
2019-08-19 02:00:00 24.4 3 Nordeste 16 Sudeste 0 -- -- 79
2019-08-19 01:00:00 25 7 Oeste 16 Oeste 0 -- -- 76
2019-08-19 00:00:00 23.5 3 Este 17 Sudeste 0 -- -- 88
2019-08-18 23:00:00 23.7 0 Calma 8 Sudeste 0 -- -- 85
2019-08-18 22:00:00 23.9 7 Oeste 15 Sudeste 0 -- -- 83
2019-08-18 21:00:00 24.1 8 Sudeste 13 Sudeste 0 -- -- 83
2019-08-18 20:00:00 26.7 6 Sudeste 10 Oeste 0 -- -- 71
2019-08-18 19:00:00 27.6 2 Oeste 12 Sudeste 0 -- -- 68
2019-08-18 18:00:00 27.6 4 Sudeste 12 Este 0 -- -- 67
2019-08-18 17:00:00 27.5 4 Sudeste 12 Sudeste 0 -- -- 69
2019-08-18 16:00:00 28.5 10 Sudeste 17 Sudeste 0 -- -- 64
2019-08-18 15:00:00 30.4 7 Sudeste 15 Este 0 -- -- 61
2019-08-18 14:00:00 29.3 5 Oeste 10 Oeste 0 -- -- 60
2019-08-18 13:00:00 29.5 5 Sudeste 14 Sudeste 0 -- -- 65
2019-08-18 12:00:00 28.3 6 Sudeste 10 Sudeste 0 -- -- 65
2019-08-18 11:00:00 29.1 0 Calma 8 Oeste 0 -- -- 57
2019-08-18 10:00:00 27.6 3 Oeste 18 Oeste 0 -- -- 60
2019-08-18 09:00:00 27.3 7 Nordeste 14 Norte 0 -- -- 50
2019-08-18 08:00:00 23.4 3 Nordeste 12 Nordeste 0 -- -- 75
2019-08-18 07:00:00 25.6 7 Norte 14 Nordeste 0 -- -- 61
2019-08-18 06:00:00 24.7 5 Nordeste 10 Oeste 0 -- -- 62
2019-08-18 05:00:00 26.9 9 Norte 14 Nordeste 0 -- -- 50
2019-08-18 04:00:00 23.8 0 Calma 13 Nordeste 0 -- -- 79
2019-08-18 03:00:00 23.2 7 Oeste 16 Sudoeste 0 -- -- 83
2019-08-18 02:00:00 23.8 6 Sudeste 14 Sudeste 0 -- -- 82
2019-08-18 01:00:00 23 0 Calma 9 Oeste 0 -- -- 83
2019-08-18 00:00:00 23.2 0 Calma 6 Este 0 -- -- 81
2019-08-17 23:00:00 23.4 5 Este 9 Este 0 -- -- 79
2019-08-17 22:00:00 23.7 3 Sudeste 6 Sudeste 0 -- -- 79
2019-08-17 21:00:00 24.2 7 Sudeste 12 Este 0 -- -- 76
2019-08-17 20:00:00 25.1 6 Este 17 Sudeste 0 -- -- 71
2019-08-17 19:00:00 27.7 2 Sur 9 Sudoeste 0 -- -- 63
2019-08-17 18:00:00 29.3 4 Sudeste 7 Sudeste 0 -- -- 57
2019-08-17 17:00:00 28.8 3 Sur 14 Este 0 -- -- 60
2019-08-17 16:00:00 28.1 9 Este 25 Sudeste 0 -- -- 63
2019-08-17 15:00:00 27.3 22 Sudeste 29 Este 0 -- -- 66
2019-08-17 14:00:00 29.8 22 Sudeste 28 Sudeste 0 -- -- 54
2019-08-17 13:00:00 26.2 13 Sudeste 27 Sudeste 0 -- -- 73
2019-08-17 12:00:00 26.2 8 Sudeste 15 Este 0 -- -- 73
2019-08-17 11:00:00 26.5 6 Sudeste 10 Sudeste 0 -- -- 73
2019-08-17 10:00:00 25.2 9 Sudeste 14 Sudeste 0 -- -- 76
2019-08-17 09:00:00 24.3 8 Nordeste 18 Sudeste 0 -- -- 77
2019-08-17 08:00:00 23 4 Este 15 Oeste 0 -- -- 78
2019-08-17 07:00:00 25.3 8 Norte 18 Nordeste 0 -- -- 63
2019-08-17 06:00:00 23.7 0 Calma 14 Oeste 0 -- -- 76
2019-08-17 05:00:00 24.7 3 Norte 15 Norte 0 -- -- 72
2019-08-17 04:00:00 23.4 3 Este 7 Sudeste 0 -- -- 76
2019-08-17 03:00:00 24.2 4 Norte 13 Este 0 -- -- 71
2019-08-17 02:00:00 24.2 3 Oeste 12 Oeste 0 -- -- 72
2019-08-17 01:00:00 24.1 0 Calma 13 Sudeste 0 -- -- 73
2019-08-17 00:00:00 23.8 11 Sudeste 18 Sudeste 0 -- -- 76
2019-08-16 23:00:00 24.1 8 Sudeste 15 Oeste 0 -- -- 73
2019-08-16 22:00:00 24.2 13 Oeste 21 Oeste 0 -- -- 74
2019-08-16 21:00:00 23.9 17 Oeste 25 Sudeste 0 -- -- 77
2019-08-16 20:00:00 25.1 22 Sudeste 29 Sudeste 0 -- -- 68
2019-08-16 19:00:00 26.9 17 Sudeste 26 Sudeste 0 -- -- 60
2019-08-16 18:00:00 28.7 3 Sudeste 21 Oeste 0 -- -- 57
2019-08-16 17:00:00 26.6 17 Oeste 24 Oeste 0 -- -- 62
2019-08-16 16:00:00 28.8 0 Calma 25 Sudeste 0 -- -- 63
2019-08-16 15:00:00 25.7 18 Sudeste 24 Sudeste 0 -- -- 71
2019-08-16 14:00:00 26.3 15 Sudeste 23 Este 0 -- -- 69
2019-08-16 13:00:00 26.5 5 Sudeste 10 Sudeste 0 -- -- 69
2019-08-16 12:00:00 26.5 4 Sudeste 14 Sudeste 0 -- -- 72
2019-08-16 11:00:00 24.8 6 Sudeste 25 Sudeste 0 -- -- 76
2019-08-16 10:00:00 23.8 16 Sudeste 25 Sudeste 0 -- -- 81
2019-08-16 09:00:00 23.3 10 Sudeste 17 Sudeste 0 -- -- 82
2019-08-16 08:00:00 22.6 0 Calma 10 Este 0 -- -- 79
2019-08-16 07:00:00 22.8 6 Norte 19 Norte 0 -- -- 71
2019-08-16 06:00:00 21.4 5 Nordeste 21 Sudeste 0 -- -- 87
2019-08-16 05:00:00 21.9 4 Oeste 13 Oeste 0 -- -- 87
2019-08-16 04:00:00 22.2 0 Calma 19 Sudeste 0 -- -- 83
2019-08-16 03:00:00 22.6 4 Nordeste 10 Norte 0 -- -- 79
2019-08-16 02:00:00 22.2 3 Nordeste 4 Norte 0 -- -- 82
2019-08-16 01:00:00 22.2 3 Sudeste 6 Este 0 -- -- 82
2019-08-16 00:00:00 22.3 2 Este 9 Sudeste 0 -- -- 81
2019-08-15 23:00:00 22.4 0 Calma 7 Oeste 0 -- -- 79
2019-08-15 22:00:00 22.6 0 Calma 15 Este 0 -- -- 78
2019-08-15 21:00:00 23 13 Sudeste 17 Este 0 -- -- 77
2019-08-15 20:00:00 24 9 Sudeste 12 Sudeste 0 -- -- 73
2019-08-15 19:00:00 26.6 3 Sur 9 Sudoeste 0 -- -- 63
2019-08-15 18:00:00 26.3 4 Sudoeste 9 Sudoeste 0 -- -- 63
2019-08-15 17:00:00 27 6 Sur 11 Sudeste 0 -- -- 62
2019-08-15 16:00:00 26.1 8 Sudeste 11 Sudeste 0 -- -- 59
2019-08-15 15:00:00 27.8 7 Sudeste 10 Sudeste 0 -- -- 51
2019-08-15 14:00:00 28.7 5 Sudeste 10 Sudeste 0 -- -- 60
2019-08-15 13:00:00 26.4 8 Sudeste 9 Sudeste 0 -- -- 66
2019-08-15 12:00:00 26.6 5 Sudeste 8 Sudeste 0 -- -- 70
2019-08-15 11:00:00 25.3 3 Sudoeste 15 Sudeste 0 -- -- 72
2019-08-15 10:00:00 24.7 4 Sudeste 7 Sudeste 0 -- -- 68
2019-08-15 09:00:00 22.2 2 Nordeste 12 Norte 0 -- -- 65
2019-08-15 08:00:00 20.8 8 Norte 10 Nordeste 0 -- -- 64
2019-08-15 07:00:00 21.6 0 Calma 6 Oeste 0 -- -- 72
2019-08-15 06:00:00 21.5 3 Norte 11 Norte 0 -- -- 64
2019-08-15 05:00:00 21 5 Nordeste 16 Este 0 -- -- 75
2019-08-15 04:00:00 22.2 0 Calma 5 Nordeste 0 -- -- 76
2019-08-15 03:00:00 22.2 0 Calma 9 Norte 0 -- -- 77
2019-08-15 02:00:00 22.2 0 Calma 7 Sudoeste 0 -- -- 78
2019-08-15 01:00:00 22.9 6 Sudoeste 10 Nordeste 0 -- -- 75
2019-08-15 00:00:00 22.3 0 Calma 5 Sudeste 0 -- -- 77
2019-08-14 23:00:00 22.4 0 Calma 7 Oeste 0 -- -- 76
2019-08-14 22:00:00 23 7 Oeste 15 Oeste 0 -- -- 74
2019-08-14 21:00:00 24 3 Sudeste 17 Sudeste 0 -- -- 68
2019-08-14 20:00:00 25.1 15 Sudeste 19 Sudeste 0 -- -- 67
2019-08-14 19:00:00 27.3 6 Sudeste 8 Sudeste 0 -- -- 61
2019-08-14 18:00:00 27.1 4 Sudeste 8 Sudeste 0 -- -- 62
2019-08-14 17:00:00 27.1 6 Sur 15 Sudeste 0 -- -- 61
2019-08-14 16:00:00 24.9 12 Sudeste 15 Sudeste 0 -- -- 64
2019-08-14 15:00:00 25.9 12 Sudeste 14 Sudeste 0 -- -- 62
2019-08-14 14:00:00 26.5 7 Sudeste 9 Sudeste 0 -- -- 60
2019-08-14 13:00:00 27.2 0 Calma 10 Sudoeste 0 -- -- 61
2019-08-14 12:00:00 25.4 5 Sudoeste 9 Sur 0 -- -- 65
2019-08-14 11:00:00 25 5 Sudeste 13 Oeste 0 -- -- 62
2019-08-14 10:00:00 25 4 Sur 13 Nordeste 0 -- -- 60
2019-08-14 09:00:00 22.7 3 Nordeste 11 Este 0 -- -- 65
2019-08-14 08:00:00 21.6 4 Nordeste 15 Norte 0 -- -- 66
2019-08-14 07:00:00 21.1 9 Norte 15 Norte 0 -- -- 68
2019-08-14 06:00:00 20.9 8 Norte 10 Nordeste 0 -- -- 70
2019-08-14 05:00:00 21.2 6 Norte 8 Nordeste 0 -- -- 70
2019-08-14 04:00:00 22.1 2 Norte 9 Este 0 -- -- 70
2019-08-14 03:00:00 22.7 6 Sudeste 21 Sudeste 0 -- -- 67
2019-08-14 02:00:00 22.8 7 Este 14 Este 0 -- -- 68
2019-08-14 01:00:00 22.6 3 Este 6 Sudeste 0 -- -- 71
2019-08-14 00:00:00 22.7 2 Oeste 12 Sudeste 0 -- -- 71
2019-08-13 23:00:00 23.1 9 Sudeste 18 Este 0 -- -- 71
2019-08-13 22:00:00 23 10 Este 15 Este 0 -- -- 73
2019-08-13 21:00:00 23.2 5 Sudeste 15 Este 0 -- -- 73
2019-08-13 20:00:00 24.3 8 Sudeste 17 Sudeste 0 -- -- 73
2019-08-13 19:00:00 25 15 Sudeste 19 Sudeste 0 -- -- 68
2019-08-13 18:00:00 24.9 12 Sur 14 Sur 0 -- -- 68
2019-08-13 17:00:00 26.3 5 Sudoeste 20 Sudeste 0 -- -- 61
2019-08-13 16:00:00 27.4 16 Sudeste 18 Sudeste 0 -- -- 52
2019-08-13 15:00:00 28.3 7 Sudeste 10 Sudeste 0 -- -- 51
2019-08-13 14:00:00 28.1 4 Sudeste 12 Sudeste 0 -- -- 57
2019-08-13 13:00:00 26.6 13 Sudeste 17 Sudeste 0 -- -- 65
2019-08-13 12:00:00 26.3 14 Sudeste 17 Sudeste 0 -- -- 63
2019-08-13 11:00:00 26.5 5 Sudeste 10 Sudeste 0 -- -- 65
2019-08-13 10:00:00 24.1 12 Sudeste 19 Sudeste 0 -- -- 73
2019-08-13 09:00:00 22.4 7 Nordeste 14 Este 0 -- -- 62
2019-08-13 08:00:00 20.9 6 Este 16 Este 0 -- -- 76
2019-08-13 07:00:00 21.7 4 Sudeste 10 Sudeste 0 -- -- 79
2019-08-13 06:00:00 22.2 7 Este 13 Sudeste 0 -- -- 78
2019-08-13 05:00:00 22.8 0 Calma 17 Norte 0 -- -- 73
2019-08-13 04:00:00 22 10 Norte 13 Norte 0 -- -- 77
2019-08-13 03:00:00 22.2 2 Norte 12 Sudeste 0 -- -- 83
2019-08-13 02:00:00 22.4 9 Sudeste 15 Este 0 -- -- 83
2019-08-13 01:00:00 22.7 6 Sudeste 12 Este 0 -- -- 83
2019-08-13 00:00:00 22.6 13 Sudeste 19 Sudeste 0 -- -- 83
2019-08-12 23:00:00 22.7 12 Sudeste 17 Sudeste 0 -- -- 83
2019-08-12 22:00:00 22.8 0 Calma 11 Sudeste 0 -- -- 82
2019-08-12 21:00:00 23.3 5 Sur 13 Sudeste 0 -- -- 78
2019-08-12 20:00:00 24.2 5 Sur 17 Sur 0 -- -- 77
2019-08-12 19:00:00 24.3 12 Sudeste 18 Sudeste 0 -- -- 76
2019-08-12 18:00:00 25.5 12 Sudeste 20 Este 0 -- -- 73
2019-08-12 17:00:00 26.3 16 Sudeste 19 Sudeste 0 -- -- 68
2019-08-12 16:00:00 27.6 10 Sudeste 15 Sur 0 -- -- 64
2019-08-12 15:00:00 26.4 6 Sudeste 12 Sudeste 0 -- -- 66
2019-08-12 14:00:00 26.6 6 Sur 10 Sudeste 0 -- -- 64
2019-08-12 13:00:00 28.5 5 Sudeste 10 Este 0 -- -- 55
2019-08-12 12:00:00 27.7 4 Sudeste 8 Este 0 -- -- 60
2019-08-12 11:00:00 26.5 4 Sur 9 Sudoeste 0 -- -- 65
2019-08-12 10:00:00 25.9 6 Oeste 12 Norte 0 -- -- 55
2019-08-12 09:00:00 23.5 9 Norte 16 Norte 0 -- -- 54
2019-08-12 08:00:00 22.3 13 Norte 17 Norte 0 -- -- 56
2019-08-12 07:00:00 22.1 12 Norte 17 Norte 0 -- -- 59
2019-08-12 06:00:00 22.2 6 Norte 16 Norte 0 -- -- 60
2019-08-12 05:00:00 22.3 13 Norte 15 Norte 0 -- -- 64
2019-08-12 04:00:00 22.3 7 Norte 12 Norte 0 -- -- 78
2019-08-12 03:00:00 22.2 9 Norte 12 Norte 0 -- -- 82
2019-08-12 02:00:00 22.4 0 Calma 4 Nordeste 0 -- -- 82
2019-08-12 01:00:00 22.1 0 Calma 7 Sur 0 -- -- 83
2019-08-12 00:00:00 22.5 7 Sur 18 Sudeste 0 -- -- 82
2019-08-11 23:00:00 22.9 16 Sudeste 25 Sudeste 0 -- -- 81
2019-08-11 22:00:00 23.3 17 Sudeste 21 Sudeste 0 -- -- 77
2019-08-11 21:00:00 24.1 10 Sudeste 13 Sudeste 0 -- -- 71
2019-08-11 20:00:00 25.5 4 Sudeste 13 Este 0 -- -- 67
2019-08-11 19:00:00 26.6 10 Sudeste 15 Este 0 -- -- 66
2019-08-11 18:00:00 26.1 7 Sudeste 14 Sudeste 0 -- -- 69
2019-08-11 17:00:00 25.6 8 Sudoeste 15 Sur 0 -- -- 72
2019-08-11 16:00:00 25.7 10 Sudeste 14 Sudeste 0 -- -- 71
2019-08-11 15:00:00 26.6 5 Sur 12 Sur 0 -- -- 68
2019-08-11 14:00:00 28.3 8 Sudeste 10 Sudeste 0 -- -- 66
2019-08-11 13:00:00 26.9 4 Sur 10 Sudeste 0 -- -- 70
2019-08-11 12:00:00 26.5 4 Sudeste 8 Sudeste 0 -- -- 71
2019-08-11 11:00:00 25.6 5 Sudoeste 9 Sudoeste 0 -- -- 74
2019-08-11 10:00:00 24.9 6 Sur 9 Sur 0 -- -- 78
2019-08-11 09:00:00 23.2 4 Nordeste 11 Sudeste 0 -- -- 79
2019-08-11 08:00:00 21.8 6 Norte 12 Norte 0 -- -- 81
2019-08-11 07:00:00 22 10 Norte 14 Norte 0 -- -- 82
2019-08-11 06:00:00 22.3 8 Nordeste 14 Nordeste 0 -- -- 83
2019-08-11 05:00:00 22.5 0 Calma 9 Sudoeste 0 -- -- 86
2019-08-11 04:00:00 22.7 2 Sudeste 12 Este 0 -- -- 86
2019-08-11 03:00:00 22.9 10 Sudeste 13 Este 0 -- -- 86
2019-08-11 02:00:00 23.1 6 Este 9 Sudeste 0 -- -- 86
2019-08-11 01:00:00 23.2 8 Sudeste 16 Sudeste 0 -- -- 87
2019-08-11 00:00:00 23.5 7 Sudeste 11 Este 0 -- -- 82
2019-08-10 23:00:00 23.9 8 Oeste 10 Oeste 0 -- -- 79
2019-08-10 22:00:00 23.5 4 Sur 13 Sudeste 0 -- -- 87
2019-08-10 21:00:00 24.3 9 Sudeste 11 Sudeste 0 -- -- 80
2019-08-10 20:00:00 25.5 6 Oeste 10 Oeste 0 -- -- 70
2019-08-10 19:00:00 26.3 4 Sudoeste 14 Sudeste 0 -- -- 72
2019-08-10 18:00:00 27 13 Sudeste 17 Sudeste 0 -- -- 66
2019-08-10 17:00:00 27.6 15 Sudeste 17 Sudeste 0 -- -- 60
2019-08-10 16:00:00 29.3 8 Sudeste 10 Este 0 -- -- 55
2019-08-10 15:00:00 27.7 4 Sur 10 Sudoeste 0 -- -- 61
2019-08-10 14:00:00 26.9 5 Sudoeste 11 Oeste 0 -- -- 63
2019-08-10 13:00:00 27.6 4 Sudeste 13 Oeste 0 -- -- 65
2019-08-10 12:00:00 25.3 8 Oeste 14 Oeste 0 -- -- 72
2019-08-10 11:00:00 25.6 6 Oeste 11 Sudoeste 0 -- -- 72
2019-08-10 10:00:00 25.8 3 Sur 9 Sur 0 -- -- 73
2019-08-10 09:00:00 24.5 2 Sur 8 Este 0 -- -- 75
2019-08-10 08:00:00 22.7 8 Este 16 Este 0 -- -- 79
2019-08-10 07:00:00 22.8 13 Este 19 Este 0 -- -- 79
2019-08-10 06:00:00 22.2 7 Norte 11 Norte 0 -- -- 83
2019-08-10 05:00:00 22.3 4 Noroeste 10 Este 0 -- -- 83
2019-08-10 04:00:00 22.5 9 Sudeste 14 Sudeste 0 -- -- 84
2019-08-10 03:00:00 22.5 13 Sudeste 18 Este 0 -- -- 85
2019-08-10 02:00:00 22.4 4 Oeste 15 Oeste 0 -- -- 87
2019-08-10 01:00:00 22.4 8 Oeste 11 Oeste 0 -- -- 85
2019-08-10 00:00:00 22.6 8 Sudeste 13 Sudeste 0 -- -- 85
2019-08-09 23:00:00 22.5 12 Sudeste 14 Sudeste 0 -- -- 84
2019-08-09 22:00:00 22.5 8 Sudeste 12 Oeste 0 -- -- 83
2019-08-09 21:00:00 22.7 11 Oeste 22 Oeste 0 -- -- 82
2019-08-09 20:00:00 23.2 12 Oeste 15 Oeste 0 -- -- 78
2019-08-09 19:00:00 24.8 5 Sudoeste 14 Sudeste 0 -- -- 73
2019-08-09 18:00:00 24.3 13 Sudeste 24 Sudeste 0 -- -- 73
2019-08-09 17:00:00 25.9 21 Sudeste 24 Sudeste 0 -- -- 68
2019-08-09 16:00:00 25.1 9 Sudeste 11 Sudeste 0 -- -- 71
2019-08-09 15:00:00 25.6 9 Sudoeste 22 Oeste 0 -- -- 71
2019-08-09 14:00:00 24.2 18 Oeste 27 Noroeste 0 -- -- 74
2019-08-09 13:00:00 23.5 21 Noroeste 27 Oeste 0 -- -- 78
2019-08-09 12:00:00 24.3 10 Oeste 16 Oeste 0 -- -- 76
2019-08-09 11:00:00 25.1 5 Sur 12 Sudeste 0 -- -- 77
2019-08-09 10:00:00 23.4 9 Sudeste 14 Sur 0 -- -- 84
2019-08-09 09:00:00 22.5 8 Sudeste 15 Sudeste 0 -- -- 88
2019-08-09 08:00:00 22.1 11 Este 17 Este 0 -- -- 89
2019-08-09 07:00:00 21.8 0 Calma 17 Oeste 0 -- -- 89
2019-08-09 06:00:00 21.8 9 Oeste 14 Oeste 0 -- -- 89
2019-08-09 05:00:00 22 4 Sudeste 9 Este 0 -- -- 89
2019-08-09 04:00:00 22 3 Sudeste 6 Oeste 0 -- -- 87
2019-08-09 03:00:00 22 3 Oeste 6 Oeste 0 -- -- 87
2019-08-09 02:00:00 22.2 5 Oeste 8 Oeste 0 -- -- 85
2019-08-09 01:00:00 22.1 2 Oeste 7 Sur 0 -- -- 86
2019-08-09 00:00:00 22.3 5 Sudeste 11 Sudeste 0 -- -- 85
2019-08-08 23:00:00 22.4 8 Sudeste 12 Sudeste 0 -- -- 84
2019-08-08 22:00:00 22.5 10 Sudeste 12 Sudeste 0 -- -- 82
2019-08-08 21:00:00 22.6 6 Sudeste 9 Sudeste 0 -- -- 81
2019-08-08 20:00:00 23.3 6 Sudoeste 12 Oeste 0 -- -- 77
2019-08-08 19:00:00 24.4 9 Oeste 18 Oeste 0 -- -- 74
2019-08-08 18:00:00 24.5 14 Oeste 19 Oeste 0 -- -- 73
2019-08-08 17:00:00 25.5 12 Oeste 17 Oeste 0 -- -- 69
2019-08-08 16:00:00 25.2 13 Oeste 18 Oeste 0 -- -- 71
2019-08-08 15:00:00 25 8 Sudoeste 17 Sudeste 0 -- -- 72
2019-08-08 14:00:00 23.9 13 Sudeste 16 Sudeste 0 -- -- 77
2019-08-08 13:00:00 24.3 8 Sudoeste 12 Sur 0 -- -- 75
2019-08-08 12:00:00 24.2 8 Sudoeste 11 Oeste 0 -- -- 76
2019-08-08 11:00:00 23.9 8 Sudoeste 14 Sur 0 -- -- 78
2019-08-08 10:00:00 23.4 11 Sudeste 17 Sudeste 0 -- -- 77
2019-08-08 09:00:00 22.9 9 Este 13 Este 0 -- -- 83
2019-08-08 08:00:00 21.7 4 Nordeste 11 Este 0 -- -- 85
2019-08-08 07:00:00 21.8 4 Sudoeste 12 Sudoeste 0 -- -- 85
2019-08-08 06:00:00 21.9 4 Sudoeste 8 Oeste 0 -- -- 85
2019-08-08 05:00:00 22 6 Oeste 15 Oeste 0 -- -- 83
2019-08-08 04:00:00 22.3 12 Oeste 15 Oeste 0 -- -- 82
2019-08-08 03:00:00 22.5 10 Nordeste 17 Este 0 -- -- 79
2019-08-08 02:00:00 22.6 14 Este 23 Sudeste 0 -- -- 82
2019-08-08 01:00:00 22.3 6 Oeste 17 Oeste 0 -- -- 83
2019-08-08 00:00:00 22.5 10 Oeste 13 Oeste 0 -- -- 82
2019-08-07 23:00:00 22.8 11 Sudeste 26 Sudeste 0 -- -- 78
2019-08-07 22:00:00 22.9 17 Sudeste 21 Sudeste 0 -- -- 79
2019-08-07 21:00:00 23 13 Sudeste 17 Este 0 -- -- 77
2019-08-07 20:00:00 23.6 9 Sur 15 Sur 0 -- -- 74
2019-08-07 19:00:00 24 10 Oeste 17 Sudoeste 0 -- -- 73
2019-08-07 18:00:00 24.3 11 Sudoeste 15 Oeste 0 -- -- 70
2019-08-07 17:00:00 26.2 8 Sur 13 Sur 0 -- -- 67
2019-08-07 16:00:00 25.2 9 Sur 17 Sudeste 0 -- -- 72
2019-08-07 15:00:00 24.7 13 Sudeste 17 Sudeste 0 -- -- 71
2019-08-07 14:00:00 25.2 9 Sur 13 Sudoeste 0 -- -- 68
2019-08-07 13:00:00 25.8 5 Sudoeste 12 Oeste 0 -- -- 66
2019-08-07 12:00:00 25.1 6 Sudoeste 9 Sur 0 -- -- 70
2019-08-07 11:00:00 25.1 4 Sudoeste 10 Sur 0 -- -- 72
2019-08-07 10:00:00 24 4 Sudeste 7 Sudeste 0 -- -- 72
2019-08-07 09:00:00 21.8 7 Norte 13 Norte 0 -- -- 75
2019-08-07 08:00:00 20.2 10 Norte 13 Norte 0 -- -- 73
2019-08-07 07:00:00 20.2 6 Nordeste 14 Este 0 -- -- 75
2019-08-07 06:00:00 21.6 9 Sudeste 12 Sudeste 0 -- -- 83
2019-08-07 05:00:00 21 4 Norte 14 Sudeste 0 -- -- 72
2019-08-07 04:00:00 22 13 Este 17 Este 0 -- -- 79
2019-08-07 03:00:00 21.8 5 Nordeste 12 Norte 0 -- -- 77
2019-08-07 02:00:00 22.1 9 Norte 10 Nordeste 0 -- -- 78
2019-08-07 01:00:00 22 4 Norte 7 Norte 0 -- -- 81
2019-08-07 00:00:00 22 4 Este 7 Este 0 -- -- 81
2019-08-06 23:00:00 22.2 3 Oeste 12 Sudoeste 0 -- -- 81
2019-08-06 22:00:00 22.5 8 Oeste 17 Sudeste 0 -- -- 79
2019-08-06 21:00:00 23 16 Sudeste 23 Sudeste 0 -- -- 79
2019-08-06 20:00:00 23.3 15 Sudeste 19 Sudeste 0 -- -- 77
2019-08-06 19:00:00 23.9 14 Sur 26 Sur 0 -- -- 75
2019-08-06 18:00:00 23.3 20 Sudoeste 27 Sudoeste 0 -- -- 78
2019-08-06 17:00:00 25.3 8 Sudoeste 14 Sur 0 -- -- 68
2019-08-06 16:00:00 24.1 13 Sudeste 17 Sudeste 0 -- -- 71
2019-08-06 15:00:00 24.7 9 Sudeste 15 Sudeste 0 -- -- 69
2019-08-06 14:00:00 25 8 Sudeste 13 Sudeste 0 -- -- 68
2019-08-06 13:00:00 25.6 6 Sudoeste 13 Oeste 0 -- -- 68
2019-08-06 12:00:00 25.5 5 Sudoeste 19 Sudeste 0 -- -- 70
2019-08-06 11:00:00 24.3 17 Sudeste 21 Sudeste 0 -- -- 71
2019-08-06 10:00:00 23.7 15 Sudeste 19 Sudeste 0 -- -- 73
2019-08-06 09:00:00 22 7 Nordeste 15 Norte 0 -- -- 70
2019-08-06 08:00:00 20.6 11 Norte 16 Norte 0 -- -- 73
2019-08-06 07:00:00 20.4 12 Norte 14 Norte 0 -- -- 77
2019-08-06 06:00:00 20.6 9 Norte 13 Norte 0 -- -- 81
2019-08-06 05:00:00 21.5 8 Este 19 Este 0 -- -- 87
2019-08-06 04:00:00 21.8 14 Este 20 Este 0 -- -- 86
2019-08-06 03:00:00 21.4 5 Norte 11 Sudeste 0 -- -- 86
2019-08-06 02:00:00 21.7 7 Sudeste 13 Este 0 -- -- 87
2019-08-06 01:00:00 21.8 7 Sudeste 17 Sudeste 0 -- -- 87
2019-08-06 00:00:00 22.1 15 Sudeste 17 Sudeste 0 -- -- 84
2019-08-05 23:00:00 22.5 13 Sudeste 24 Sudeste 0 -- -- 83
2019-08-05 22:00:00 22.7 15 Sudeste 18 Sudeste 0 -- -- 81
2019-08-05 21:00:00 23.2 9 Sudeste 12 Sudeste 0 -- -- 77
2019-08-05 20:00:00 24.8 5 Sudeste 21 Sudeste 0 -- -- 71
2019-08-05 19:00:00 25.8 18 Sudeste 21 Sudeste 0 -- -- 66
2019-08-05 18:00:00 27.1 13 Sudeste 14 Sudeste 0 -- -- 61
2019-08-05 17:00:00 26.8 9 Sudeste 13 Sudeste 0 -- -- 59
2019-08-05 16:00:00 26.4 5 Sudeste 16 Sur 0 -- -- 66
2019-08-05 15:00:00 25.1 13 Sur 23 Sudeste 0 -- -- 71
2019-08-05 14:00:00 24.8 24 Sudeste 33 Sudeste 0 -- -- 68
2019-08-05 13:00:00 25.8 18 Sudeste 21 Sudeste 0 -- -- 65
2019-08-05 12:00:00 24.8 8 Oeste 16 Oeste 0 -- -- 67
2019-08-05 11:00:00 25.8 4 Sudoeste 10 Oeste 0 -- -- 65
2019-08-05 10:00:00 25 6 Sudeste 15 Sudeste 0 -- -- 65
2019-08-05 09:00:00 21.8 7 Norte 13 Norte 0 -- -- 66
2019-08-05 08:00:00 20.3 11 Norte 14 Norte 0 -- -- 71
2019-08-05 07:00:00 20.6 11 Norte 14 Norte 0 -- -- 72
2019-08-05 06:00:00 22 6 Nordeste 15 Este 0 -- -- 71
2019-08-05 05:00:00 21.6 10 Este 17 Este 0 -- -- 76
2019-08-05 04:00:00 21.8 3 Oeste 10 Oeste 0 -- -- 76
2019-08-05 03:00:00 22.1 7 Oeste 10 Oeste 0 -- -- 72
2019-08-05 02:00:00 22.7 4 Este 19 Este 0 -- -- 70
2019-08-05 01:00:00 22.1 5 Sudeste 11 Sudeste 0 -- -- 77
2019-08-05 00:00:00 22.3 5 Noroeste 14 Oeste 0 -- -- 78
2019-08-04 23:00:00 22.7 7 Oeste 20 Sudeste 0 -- -- 73
2019-08-04 22:00:00 22.7 16 Sudeste 20 Sudeste 0 -- -- 74
2019-08-04 21:00:00 22.9 6 Sur 14 Sudoeste 0 -- -- 73
2019-08-04 20:00:00 23.8 8 Sudoeste 16 Sudoeste 0 -- -- 69
2019-08-04 19:00:00 24.4 7 Sur 27 Sudeste 0 -- -- 68
2019-08-04 18:00:00 25.2 24 Sudeste 31 Sudeste 0 -- -- 67
2019-08-04 17:00:00 26.4 17 Sudeste 21 Sudeste 0 -- -- 59
2019-08-04 16:00:00 26.4 7 Sur 14 Oeste 0 -- -- 57
2019-08-04 15:00:00 25.8 9 Oeste 15 Oeste 0 -- -- 62
2019-08-04 14:00:00 25.4 7 Sudeste 13 Sudeste 0 -- -- 65
2019-08-04 13:00:00 25.4 8 Sudeste 14 Sudoeste 0 -- -- 62
2019-08-04 12:00:00 23.3 11 Sudoeste 14 Sudoeste 0 -- -- 70
2019-08-04 11:00:00 23.3 9 Sudoeste 12 Sudoeste 0 -- -- 71
2019-08-04 10:00:00 23.8 6 Sur 16 Sudeste 0 -- -- 71
2019-08-04 09:00:00 22.5 9 Este 16 Este 0 -- -- 75
2019-08-04 08:00:00 20 8 Norte 14 Norte 0 -- -- 75
2019-08-04 07:00:00 20.3 6 Norte 12 Norte 0 -- -- 76
2019-08-04 06:00:00 20.2 7 Norte 9 Norte 0 -- -- 76
2019-08-04 05:00:00 21 2 Este 19 Este 0 -- -- 78
2019-08-04 04:00:00 21.2 10 Este 18 Sudeste 0 -- -- 78
2019-08-04 03:00:00 21.3 9 Este 12 Este 0 -- -- 78
2019-08-04 02:00:00 21.3 5 Sudeste 10 Sudeste 0 -- -- 78
2019-08-04 01:00:00 22.2 6 Sudeste 21 Sudeste 0 -- -- 76
2019-08-04 00:00:00 22.8 8 Este 20 Este 0 -- -- 69
2019-08-03 23:00:00 22.5 8 Nordeste 15 Sur 0 -- -- 73
2019-08-03 22:00:00 22.1 7 Sudoeste 23 Sudoeste 0 -- -- 76
2019-08-03 21:00:00 22.3 6 Sudoeste 24 Sudeste 0 -- -- 76
2019-08-03 20:00:00 22.8 23 Sudeste 32 Sudeste 0 -- -- 73
2019-08-03 19:00:00 24 23 Sudeste 27 Sudeste 0 -- -- 67
2019-08-03 18:00:00 25.5 7 Sudeste 26 Sudoeste 0 -- -- 64
2019-08-03 17:00:00 24.3 20 Oeste 28 Oeste 0 -- -- 67
2019-08-03 16:00:00 25.1 8 Sur 43 Sudeste 0 -- -- 66
2019-08-03 15:00:00 23.4 35 Sudeste 42 Sudeste 0 -- -- 71
2019-08-03 14:00:00 24.2 25 Sudeste -- -- -- -- -- 67
2019-08-03 13:00:00 25.8 7 Sudeste 23 Oeste 0 -- -- 66
2019-08-03 12:00:00 23.1 17 Oeste 26 Oeste 0 -- -- 71
2019-08-03 11:00:00 23.3 10 Sudeste 25 Sudeste 0 -- -- 71
2019-08-03 10:00:00 23.5 19 Sudeste 26 Sudeste 0 -- -- 70
2019-08-03 09:00:00 22.6 13 Este 23 Este 0 -- -- 73
2019-08-03 08:00:00 20.3 9 Norte 13 Norte 0 -- -- 73
2019-08-03 07:00:00 21 7 Norte 13 Norte 0 -- -- 73
2019-08-03 06:00:00 21.6 6 Este 22 Este 0 -- -- 73
2019-08-03 05:00:00 21.6 9 Este 18 Sudeste 0 -- -- 75
2019-08-03 04:00:00 21.7 6 Este 17 Noroeste 0 -- -- 77
2019-08-03 03:00:00 21.9 10 Norte 19 Noroeste 0 -- -- 76
2019-08-03 02:00:00 21.8 0 Calma 23 Sudeste 0 -- -- 79
2019-08-03 01:00:00 21.9 13 Este 18 Este 0 -- -- 79
2019-08-03 00:00:00 22 6 Oeste 16 Noroeste 0 -- -- 78
2019-08-02 23:00:00 22.1 0 Calma 33 Sudeste 0 -- -- 77
2019-08-02 22:00:00 22.7 19 Sudeste 30 Sudeste 0 -- -- 76
2019-08-02 21:00:00 22.4 10 Sudeste 17 Sudoeste 0 -- -- 76
2019-08-02 20:00:00 23.1 14 Sudoeste 22 Sudoeste 0 -- -- 73
2019-08-02 19:00:00 24.1 9 Oeste 21 Sudeste 0 -- -- 67
2019-08-02 18:00:00 24.1 21 Sudeste 35 Sudeste 0 -- -- 68
2019-08-02 17:00:00 26.1 14 Sudeste 17 Sudeste 0 -- -- 62
2019-08-02 16:00:00 25.8 7 Oeste 15 Oeste 0 -- -- 60
2019-08-02 15:00:00 25.2 9 Sudoeste 26 Sudoeste 0 -- -- 65
2019-08-02 14:00:00 24.6 16 Oeste 22 Oeste 0 -- -- 65
2019-08-02 13:00:00 24.4 11 Sur 21 Sudeste 0 -- -- 66
2019-08-02 12:00:00 25.1 19 Sudeste 23 Sudeste 0 -- -- 62
2019-08-02 11:00:00 25.6 10 Sudeste 14 Sudeste 0 -- -- 62
2019-08-02 10:00:00 23.5 8 Oeste 17 Oeste 0 -- -- 68
2019-08-02 09:00:00 22.5 4 Oeste 14 Norte 0 -- -- 70
2019-08-02 08:00:00 19.9 11 Norte 15 Sudeste 0 -- -- 71
2019-08-02 07:00:00 21.3 8 Este 23 Sudeste 0 -- -- 76
2019-08-02 06:00:00 21.4 13 Este 21 Este 0 -- -- 76
2019-08-02 05:00:00 21.8 9 Oeste 20 Oeste 0 -- -- 76
2019-08-02 04:00:00 21.7 11 Oeste 14 Oeste 0 -- -- 77
2019-08-02 03:00:00 21.7 6 Sudeste 17 Sudeste 0 -- -- 79
2019-08-02 02:00:00 21.8 14 Sudeste 19 Este 0 -- -- 77
2019-08-02 01:00:00 21.7 0 Calma 8 Oeste 0 -- -- 73
2019-08-02 00:00:00 21.9 4 Oeste 16 Sudeste 0 -- -- 73
2019-08-01 23:00:00 22.5 17 Sudeste 22 Sudeste 0 -- -- 72
2019-08-01 22:00:00 23 10 Sudeste 17 Sudeste 0 -- -- 67
2019-08-01 21:00:00 22.8 13 Sudeste 15 Sudeste 0 -- -- 69
2019-08-01 20:00:00 23.4 13 Sur 18 Sur 0 -- -- 68
2019-08-01 19:00:00 24.3 10 Sudoeste 14 Sudoeste 0 -- -- 64
2019-08-01 18:00:00 24.8 14 Sudeste 36 Sudeste 0 -- -- 63
2019-08-01 17:00:00 24.6 29 Sudeste 32 Sudeste 0 -- -- 63
2019-08-01 16:00:00 25.9 21 Sudeste 24 Sudeste 0 -- -- 62
2019-08-01 15:00:00 26.5 5 Sudeste 27 Sudoeste 0 -- -- 57
2019-08-01 14:00:00 23.4 21 Sudoeste 25 Oeste 0 -- -- 66
2019-08-01 13:00:00 24.6 13 Oeste 17 Oeste 0 -- -- 61
2019-08-01 12:00:00 24.6 11 Sur 17 Sudeste 0 -- -- 64
2019-08-01 11:00:00 23.2 9 Sudeste 13 Sudeste 0 -- -- 65
2019-08-01 10:00:00 24.2 5 Sudeste 8 Sudeste 0 -- -- 61
2019-08-01 09:00:00 22.1 7 Norte 15 Norte 0 -- -- 60
2019-08-01 08:00:00 20.1 12 Norte 15 Norte 0 -- -- 64
2019-08-01 07:00:00 19.8 10 Norte 15 Norte 0 -- -- 62
2019-08-01 06:00:00 20 10 Norte 14 Norte 0 -- -- 62
2019-08-01 05:00:00 20.8 9 Nordeste 14 Nordeste 0 -- -- 64
2019-08-01 04:00:00 20.9 9 Norte 13 Nordeste 0 -- -- 59
2019-08-01 03:00:00 22 8 Este 12 Este 0 -- -- 65
2019-08-01 02:00:00 21.8 6 Norte 12 Norte 0 -- -- 60
2019-08-01 01:00:00 22.4 7 Norte 19 Este 0 -- -- 65
2019-08-01 00:00:00 22.4 6 Este 24 Este 0 -- -- 70
2019-07-31 23:00:00 22.3 9 Este 18 Este 0 -- -- 71
2019-07-31 22:00:00 22.3 10 Sur 14 Sur 0 -- -- 71
2019-07-31 21:00:00 23.2 4 Sudoeste 14 Oeste 0 -- -- 63
2019-07-31 20:00:00 23.7 10 Sudeste 15 Sudeste 0 -- -- 64
2019-07-31 19:00:00 25 14 Sudeste 17 Sudeste 0 -- -- 57
2019-07-31 18:00:00 26 12 Sudeste 24 Sur 0 -- -- 57
2019-07-31 17:00:00 24.5 13 Sur 17 Sur 0 -- -- 58
2019-07-31 16:00:00 25.4 7 Sur 12 Sur 0 -- -- 56
2019-07-31 15:00:00 25.9 7 Sudoeste 12 Sudeste 0 -- -- 55
2019-07-31 14:00:00 24.9 9 Sudeste 17 Sur 0 -- -- 57
2019-07-31 13:00:00 24.2 11 Sudeste 19 Sudeste 0 -- -- 60
2019-07-31 12:00:00 23.6 13 Sur 20 Sudeste 0 -- -- 62
2019-07-31 11:00:00 24.2 13 Sur 19 Sur 0 -- -- 63
2019-07-31 10:00:00 24 5 Sudoeste 10 Nordeste 0 -- -- 65
2019-07-31 09:00:00 21.7 8 Norte 13 Norte 0 -- -- 68
2019-07-31 08:00:00 20 9 Norte 14 Norte 0 -- -- 73
2019-07-31 07:00:00 20.2 11 Norte 14 Norte 0 -- -- 73
2019-07-31 06:00:00 20.7 8 Norte 10 Norte 0 -- -- 73
2019-07-31 05:00:00 21.5 0 Calma 12 Sudeste 0 -- -- 73
2019-07-31 04:00:00 21.9 5 Nordeste 15 Este 0 -- -- 73
2019-07-31 03:00:00 22 9 Este 13 Sudeste 0 -- -- 73
2019-07-31 02:00:00 22.2 9 Sudeste 14 Sudeste 0 -- -- 71
2019-07-31 01:00:00 22.7 3 Nordeste 17 Este 0 -- -- 71
2019-07-31 00:00:00 22.7 9 Este 20 Este 0 -- -- 72
2019-07-30 23:00:00 22.7 5 Sudeste 14 Sudeste 0 -- -- 75
2019-07-30 22:00:00 22.9 11 Sudeste 16 Sudeste 0 -- -- 72
2019-07-30 21:00:00 23.2 13 Sudeste 19 Sudeste 0 -- -- 71
2019-07-30 20:00:00 23.4 13 Sur 20 Sur 0 -- -- 71
2019-07-30 19:00:00 24.1 10 Sur 23 Sudeste 0 -- -- 69
2019-07-30 18:00:00 24.1 19 Sudeste 30 Sudeste 0 -- -- 68
2019-07-30 17:00:00 24.7 13 Sudeste 22 Sudeste 0 -- -- 65
2019-07-30 16:00:00 25.9 13 Sudeste 26 Este 0 -- -- 63
2019-07-30 15:00:00 24.9 15 Sur 21 Sur 0 -- -- 67
2019-07-30 14:00:00 25 10 Sudeste 22 Sudeste 0 -- -- 66
2019-07-30 13:00:00 26.1 15 Sudeste 19 Sudeste 0 -- -- 62
2019-07-30 12:00:00 26.2 15 Sudeste 17 Sudeste 0 -- -- 63
2019-07-30 11:00:00 25.8 9 Sudeste 12 Sudeste 0 -- -- 65
2019-07-30 10:00:00 24.2 8 Sudeste 13 Sudeste 0 -- -- 70
2019-07-30 09:00:00 24.4 8 Este 18 Este 0 -- -- 71
2019-07-30 08:00:00 21.8 3 Nordeste 7 Sudeste 0 -- -- 73
2019-07-30 07:00:00 22.3 3 Nordeste 13 Este 0 -- -- 72
2019-07-30 06:00:00 21.8 8 Nordeste 14 Nordeste 0 -- -- 71
2019-07-30 05:00:00 21.5 11 Norte 16 Norte 0 -- -- 72
2019-07-30 04:00:00 22.6 5 Nordeste 18 Este 0 -- -- 70
2019-07-30 03:00:00 22.1 8 Este 12 Este 0 -- -- 75
2019-07-30 02:00:00 22 0 Calma 13 Este 0 -- -- 74
2019-07-30 01:00:00 22.3 10 Este 21 Este 0 -- -- 74
2019-07-30 00:00:00 22.5 9 Este 13 Este 0 -- -- 74
2019-07-29 23:00:00 22.5 9 Sur 23 Sudeste 0 -- -- 75
2019-07-29 22:00:00 23.2 16 Sudeste 22 Sudeste 0 -- -- 71
2019-07-29 21:00:00 23.4 12 Este 21 Este 0 -- -- 69
2019-07-29 20:00:00 23.9 6 Sudoeste 17 Sudoeste 0 -- -- 69
2019-07-29 19:00:00 24.1 8 Sudoeste 32 Sudeste 0 -- -- 68
2019-07-29 18:00:00 24.8 29 Sudeste 33 Sudeste 0 -- -- 64
2019-07-29 17:00:00 25.9 21 Sudeste 26 Sudeste 0 -- -- 59
2019-07-29 16:00:00 25.7 6 Sudoeste 27 Oeste 0 -- -- 61
2019-07-29 15:00:00 23.8 15 Sudoeste 28 Sudeste 0 -- -- 66
2019-07-29 14:00:00 25.1 27 Sudeste 34 Sudeste 0 -- -- 61
2019-07-29 13:00:00 26.2 6 Sudeste 26 Sudoeste 0 -- -- 59
2019-07-29 12:00:00 24.8 15 Oeste 25 Oeste 0 -- -- 66
2019-07-29 11:00:00 23.6 14 Sur 30 Sudeste 0 -- -- 68
2019-07-29 10:00:00 24.5 12 Este 30 Este 0 -- -- 62
2019-07-29 09:00:00 23.2 8 Nordeste 15 Oeste 0 -- -- 68
2019-07-29 08:00:00 22.1 13 Sudoeste 19 Sudoeste 0 -- -- 73
2019-07-29 07:00:00 21.7 7 Norte 12 Nordeste 0 -- -- 66
2019-07-29 06:00:00 22.3 8 Nordeste 22 Nordeste 0 -- -- 66
2019-07-29 05:00:00 22.7 9 Nordeste 16 Nordeste 0 -- -- 70
2019-07-29 04:00:00 22.3 2 Nordeste 14 Oeste 0 -- -- 76
2019-07-29 03:00:00 22.5 9 Oeste 12 Oeste 0 -- -- 76
2019-07-29 02:00:00 23 4 Este 23 Este 0 -- -- 72
2019-07-29 01:00:00 23.1 13 Este 26 Este 0 -- -- 75
2019-07-29 00:00:00 22.8 8 Este 19 Sur 0 -- -- 79
2019-07-28 23:00:00 22.8 5 Sudoeste 12 Sur 0 -- -- 79
2019-07-28 22:00:00 23.1 10 Sur 15 Sudeste 0 -- -- 78
2019-07-28 21:00:00 23.1 9 Sudeste 13 Sudeste 0 -- -- 79
2019-07-28 20:00:00 23.8 10 Sudoeste 15 Sudoeste 0 -- -- 77
2019-07-28 19:00:00 24.7 6 Sudoeste 12 Sur 0 -- -- 74
2019-07-28 18:00:00 25 9 Sur 26 Sudeste 0 -- -- 75
2019-07-28 17:00:00 25.3 19 Sudeste 23 Sudeste 0 -- -- 72
2019-07-28 16:00:00 26 8 Sur 19 Sudoeste 0 -- -- 72
2019-07-28 15:00:00 24.1 13 Sudoeste 20 Sudoeste 0 -- -- 76
2019-07-28 14:00:00 24.8 9 Sudoeste 11 Sur 0 -- -- 71
2019-07-28 13:00:00 23.9 12 Sudeste 23 Sudeste 0 -- -- 73
2019-07-28 12:00:00 25.5 13 Sudeste 15 Sudeste 0 -- -- 68
2019-07-28 11:00:00 26.4 5 Sudeste 10 Oeste 0 -- -- 67
2019-07-28 10:00:00 25.2 2 Sudoeste 8 Nordeste 0 -- -- 70
2019-07-28 09:00:00 22.2 6 Nordeste 13 Nordeste 0 -- -- 75
2019-07-28 08:00:00 20.8 9 Nordeste 13 Nordeste 0 -- -- 79
2019-07-28 07:00:00 20.5 7 Nordeste 10 Nordeste 0 -- -- 79
2019-07-28 06:00:00 21.1 5 Nordeste 13 Este 0 -- -- 79
2019-07-28 05:00:00 21.6 11 Este 16 Sudeste 0 -- -- 79
2019-07-28 04:00:00 21.6 6 Este 9 Este 0 -- -- 79
2019-07-28 03:00:00 21.6 5 Oeste 13 Sudeste 0 -- -- 79
2019-07-28 02:00:00 22.1 13 Sudeste 15 Este 0 -- -- 78
2019-07-28 01:00:00 22.2 10 Sudeste 14 Sudeste 0 -- -- 77
2019-07-28 00:00:00 22.3 4 Sudeste 19 Este 0 -- -- 76
2019-07-27 23:00:00 23.2 13 Sudeste 24 Sudeste 0 -- -- 71
2019-07-27 22:00:00 23.4 12 Este 24 Sudeste 0 -- -- 73
2019-07-26 11:00:00 24.3 14 Sudeste 23 Sudeste 0 -- -- 76
2019-07-26 10:00:00 25.2 17 Sudeste 21 Sudeste 0 -- -- 71
2019-07-26 09:00:00 25.2 2 Noroeste 12 Nordeste 0 -- -- 56
2019-07-26 08:00:00 23.1 7 Nordeste 17 Norte 0 -- -- 56
2019-07-26 07:00:00 22.6 9 Norte 13 Norte 0 -- -- 59
2019-07-26 06:00:00 22.7 7 Norte 15 Nordeste 0 -- -- 64
2019-07-26 05:00:00 22.9 4 Oeste 11 Oeste 0 -- -- 81
2019-07-26 04:00:00 22.7 0 Calma 8 Sudeste 0 -- -- 82
2019-07-26 03:00:00 22.7 11 Sudeste 22 Sudeste 0 -- -- 83
2019-07-26 02:00:00 23.2 9 Sudeste 13 Sudeste 0 -- -- 82
2019-07-26 01:00:00 25.4 5 Nordeste 16 Este 0 -- -- 56
2019-07-26 00:00:00 24 3 Sudeste 16 Sudeste 0 -- -- 71
2019-07-25 23:00:00 24.2 3 Sudeste 9 Este 0 -- -- 70
2019-07-25 22:00:00 24.4 6 Sudeste 9 Sudeste 0 -- -- 66
2019-07-25 21:00:00 25.1 2 Sudeste 16 Sudeste 0 -- -- 61
2019-07-25 20:00:00 26.4 15 Sudeste 17 Sudeste 0 -- -- 53
2019-07-25 19:00:00 29.2 6 Sudeste 9 Sudeste 0 -- -- 46
2019-07-25 18:00:00 30.1 3 Sudeste 8 Sudeste 0 -- -- 47
2019-07-25 17:00:00 30 5 Sudeste 19 Sudeste 0 -- -- 50
2019-07-25 16:00:00 28.4 17 Sudeste 21 Sudeste 0 -- -- 53
2019-07-25 15:00:00 28.3 6 Sudoeste 19 Oeste 0 -- -- 52
2019-07-25 14:00:00 29.8 2 Sudeste 16 Este 0 -- -- 47
2019-07-25 13:00:00 30 4 Sudeste 25 Noroeste 0 -- -- 50
2019-07-25 12:00:00 25.3 15 Oeste 22 Oeste 0 -- -- 65
2019-07-25 11:00:00 26.2 9 Sudeste 17 Sudeste 0 -- -- 65
2019-07-25 10:00:00 25.7 10 Sudeste 19 Oeste 0 -- -- 60
2019-07-25 09:00:00 24.5 10 Oeste 17 Oeste 0 -- -- 57
2019-07-25 08:00:00 21.5 8 Norte 14 Norte 0 -- -- 65
2019-07-25 07:00:00 21.3 12 Norte 14 Norte 0 -- -- 69
2019-07-25 06:00:00 21.6 12 Norte 16 Norte 0 -- -- 73
2019-07-25 05:00:00 21.5 9 Norte 16 Norte 0 -- -- 81
2019-07-25 04:00:00 21.4 14 Norte 17 Norte 0 -- -- 84
2019-07-25 03:00:00 21.7 7 Sudeste 9 Este 0 -- -- 84
2019-07-25 02:00:00 21.9 0 Calma 9 Sur 0 -- -- 83
2019-07-25 01:00:00 22.3 2 Este 17 Este 0 -- -- 81
2019-07-25 00:00:00 22.2 7 Sudeste 12 Sudeste 0 -- -- 81
2019-07-24 23:00:00 22.3 6 Sudeste 13 Oeste 0 -- -- 79
2019-07-24 22:00:00 22.7 12 Oeste 15 Oeste 0 -- -- 78
2019-07-24 21:00:00 23.1 7 Oeste 13 Sudoeste 0 -- -- 78
2019-07-24 20:00:00 24 5 Sudoeste 22 Sudeste 0 -- -- 75
2019-07-24 19:00:00 23.9 21 Sudeste 25 Sudeste 0 -- -- 76
2019-07-24 18:00:00 24.4 21 Sudeste 25 Sudeste 0 -- -- 74
2019-07-24 17:00:00 25.7 13 Sudeste 19 Sudeste 0 -- -- 69
2019-07-24 16:00:00 26.3 6 Sudoeste 25 Sudeste 0 -- -- 66
2019-07-24 15:00:00 25.4 21 Sudeste 25 Sudeste 0 -- -- 67
2019-07-24 14:00:00 27 6 Sudeste 13 Oeste 0 -- -- 63
2019-07-24 13:00:00 25.1 12 Oeste 18 Oeste 0 -- -- 71
2019-07-24 12:00:00 24.5 8 Sudoeste 22 Sur 0 -- -- 72
2019-07-24 11:00:00 24.5 18 Sudeste 21 Sudeste 0 -- -- 72
2019-07-24 10:00:00 25.5 2 Sur 6 Sudeste 0 -- -- 64
2019-07-24 09:00:00 22 4 Nordeste 12 Norte 0 -- -- 61
2019-07-24 08:00:00 19.9 8 Norte 13 Norte 0 -- -- 65
2019-07-24 07:00:00 20.3 8 Norte 14 Norte 0 -- -- 70
2019-07-24 06:00:00 20.2 12 Norte 15 Norte 0 -- -- 76
2019-07-24 05:00:00 20.5 7 Nordeste 10 Norte 0 -- -- 79
2019-07-24 04:00:00 21 4 Norte 9 Norte 0 -- -- 81
2019-07-24 03:00:00 21.7 0 Calma 19 Este 0 -- -- 81
2019-07-24 02:00:00 21.7 12 Este 19 Este 0 -- -- 81
2019-07-24 01:00:00 21.9 6 Sudeste 10 Sudeste 0 -- -- 81
2019-07-24 00:00:00 22.1 4 Sur 9 Sudeste 0 -- -- 81
2019-07-23 23:00:00 22.4 10 Sudeste 19 Sudeste 0 -- -- 81
2019-07-23 22:00:00 22.3 8 Sur 13 Sudeste 0 -- -- 79
2019-07-23 21:00:00 23.3 6 Sur 16 Sudeste 0 -- -- 72
2019-07-23 20:00:00 24.6 17 Sudeste 20 Sudeste 0 -- -- 67
2019-07-23 19:00:00 24.8 5 Sudeste 8 Sudeste 0 -- -- 64
2019-07-23 18:00:00 26.4 4 Sudoeste 10 Sur 0 -- -- 60
2019-07-23 17:00:00 26.2 6 Sur 12 Sur 0 -- -- 61
2019-07-23 16:00:00 26.2 7 Sur 13 Sudeste 0 -- -- 63
2019-07-23 15:00:00 25.8 6 Sur 10 Oeste 0 -- -- 65
2019-07-23 14:00:00 24.7 7 Sudoeste 15 Sudoeste 0 -- -- 68
2019-07-23 13:00:00 24.7 7 Sudoeste 13 Oeste 0 -- -- 68
2019-07-23 12:00:00 24.5 7 Sudoeste 11 Sudoeste 0 -- -- 68
2019-07-23 11:00:00 24.6 5 Sudoeste 9 Este 0 -- -- 70
2019-07-23 10:00:00 23.9 4 Sur 10 Norte 0 -- -- 73
2019-07-23 09:00:00 21 9 Norte 14 Norte 0 -- -- 78
2019-07-23 08:00:00 19.6 10 Norte 13 Norte 0 -- -- 81
2019-07-23 07:00:00 19.8 10 Norte 13 Norte 0 -- -- 82
2019-07-23 06:00:00 20.4 6 Norte 9 Norte 0 -- -- 82
2019-07-23 05:00:00 21 0 Calma 10 Oeste 0 -- -- 82
2019-07-23 04:00:00 21.3 3 Sudoeste 15 Sudeste 0 -- -- 82
2019-07-23 03:00:00 21.5 14 Sudeste 17 Sudeste 0 -- -- 82
2019-07-23 02:00:00 21.7 0 Calma 16 Oeste 0 -- -- 82
2019-07-23 01:00:00 21.9 10 Oeste 21 Sudeste 0 -- -- 81
2019-07-23 00:00:00 22.3 19 Sudeste 29 Este 0 -- -- 81
2019-07-22 23:00:00 22.4 13 Sudeste 22 Sudeste 0 -- -- 78
2019-07-22 22:00:00 22.4 4 Sudeste 14 Sur 0 -- -- 78
2019-07-22 21:00:00 22.9 10 Sur 13 Sur 0 -- -- 76
2019-07-22 20:00:00 24.1 7 Sur 17 Sudeste 0 -- -- 73
2019-07-22 19:00:00 25.3 15 Sudeste 26 Sudeste 0 -- -- 69
2019-07-22 18:00:00 24.5 22 Sudeste 25 Sudeste 0 -- -- 70
2019-07-22 17:00:00 24.6 12 Sudeste 15 Sudeste 0 -- -- 67
2019-07-22 16:00:00 26.1 5 Sur 14 Oeste 0 -- -- 63
2019-07-22 15:00:00 24.4 10 Sudoeste 14 Oeste 0 -- -- 71
2019-07-22 14:00:00 24.5 9 Sur 18 Sudeste 0 -- -- 71
2019-07-22 13:00:00 24.1 12 Sudeste 15 Sudeste 0 -- -- 69
2019-07-22 12:00:00 24.5 7 Sudoeste 15 Sudoeste 0 -- -- 70
2019-07-22 11:00:00 24.7 8 Oeste 12 Oeste 0 -- -- 72
2019-07-22 10:00:00 22.6 9 Sudeste 16 Sur 0 -- -- 78
2019-07-22 09:00:00 22.4 3 Este 10 Oeste 0 -- -- 79
2019-07-22 08:00:00 21.5 5 Noroeste 15 Nordeste 0 -- -- 82
2019-07-22 07:00:00 21 5 Norte 10 Norte 0 -- -- 81
2019-07-22 06:00:00 21.5 6 Este 13 Sudeste 0 -- -- 82
2019-07-22 05:00:00 21.5 8 Sudeste 11 Sudeste 0 -- -- 81
2019-07-22 04:00:00 21.9 3 Oeste 9 Noroeste 0 -- -- 79
2019-07-22 03:00:00 21.8 2 Sudoeste 9 Sur 0 -- -- 79
2019-07-22 02:00:00 22.3 6 Sudeste 16 Este 0 -- -- 76
2019-07-22 01:00:00 22.6 10 Este 23 Este 0 -- -- 78
2019-07-22 00:00:00 22.1 9 Este 15 Este 0 -- -- 81